createdAt,value
2022-12-29T00:01:39.451Z,0.50
2022-12-29T00:06:52.282Z,0.95
2022-12-29T00:11:54.890Z,0.50
2022-12-29T00:16:57.782Z,1.27
2022-12-29T00:22:19.183Z,1.35
2022-12-29T00:27:39.449Z,0.75
2022-12-29T00:32:59.315Z,0.90
2022-12-29T00:38:24.558Z,0.73
2022-12-29T00:43:44.608Z,0.50
2022-12-29T00:49:05.423Z,0.88
2022-12-29T00:54:09.272Z,0.70
2022-12-29T00:59:12.675Z,0.82
2022-12-29T01:04:15.234Z,0.50
2022-12-29T01:09:36.772Z,0.70
2022-12-29T01:14:39.724Z,0.98
2022-12-29T01:19:52.302Z,0.35
2022-12-29T01:24:56.280Z,0.98
2022-12-29T01:29:58.993Z,0.50
2022-12-29T01:35:01.604Z,0.80
2022-12-29T01:40:06.169Z,0.82
2022-12-29T01:45:11.462Z,0.63
2022-12-29T01:55:17.932Z,0.90
2022-12-29T02:00:20.548Z,0.40
2022-12-29T02:05:27.156Z,0.63
2022-12-29T02:10:33.442Z,0.90
2022-12-29T02:15:39.285Z,0.50
2022-12-29T02:20:59.177Z,0.65
2022-12-29T02:26:26.244Z,0.75
2022-12-29T02:31:33.706Z,0.88
2022-12-29T02:36:42.381Z,0.45
2022-12-29T02:41:51.139Z,0.80
2022-12-29T02:46:56.391Z,0.75
2022-12-29T02:52:02.138Z,0.47
2022-12-29T02:57:10.942Z,0.73
2022-12-29T03:02:24.298Z,0.45
2022-12-29T03:07:32.723Z,0.43
2022-12-29T03:12:55.973Z,1.00
2022-12-29T03:18:08.049Z,0.63
2022-12-29T03:23:10.932Z,0.68
2022-12-29T03:28:14.372Z,0.35
2022-12-29T03:33:19.811Z,0.37
2022-12-29T03:38:25.236Z,0.70
2022-12-29T03:43:28.105Z,0.75
2022-12-29T03:48:33.831Z,0.80
2022-12-29T03:53:37.137Z,0.43
2022-12-29T03:58:39.779Z,0.68
2022-12-29T04:03:43.775Z,0.43
2022-12-29T04:08:46.839Z,0.60
2022-12-29T04:13:49.359Z,0.60
2022-12-29T04:18:53.212Z,0.60
2022-12-29T04:23:55.760Z,0.28
2022-12-29T04:28:58.380Z,0.70
2022-12-29T04:34:02.897Z,0.70
2022-12-29T04:39:06.130Z,0.45
2022-12-29T04:44:09.100Z,0.30
2022-12-29T04:49:13.092Z,0.45
2022-12-29T04:54:16.515Z,0.75
2022-12-29T04:59:19.265Z,0.38
2022-12-29T05:04:23.205Z,0.30
2022-12-29T05:09:25.963Z,0.50
2022-12-29T05:14:28.507Z,0.45
2022-12-29T05:19:32.475Z,0.40
2022-12-29T05:24:35.075Z,0.40
2022-12-29T05:29:37.628Z,0.60
2022-12-29T05:34:41.605Z,0.50
2022-12-29T05:39:44.240Z,0.60
2022-12-29T05:44:46.767Z,0.82
2022-12-29T05:49:50.711Z,0.43
2022-12-29T05:54:53.507Z,0.50
2022-12-29T05:59:56.491Z,0.68
2022-12-29T06:05:00.399Z,0.55
2022-12-29T06:10:03.161Z,0.30
2022-12-29T06:15:06.263Z,0.60
2022-12-29T06:20:11.722Z,1.00
2022-12-29T06:25:14.264Z,0.57
2022-12-29T06:30:17.928Z,0.60
2022-12-29T06:35:22.485Z,1.20
2022-12-29T06:40:25.127Z,0.65
2022-12-29T06:45:27.874Z,0.80
2022-12-29T06:50:31.768Z,0.70
2022-12-29T06:55:34.358Z,0.50
2022-12-29T07:00:37.111Z,0.57
2022-12-29T07:05:41.058Z,0.73
2022-12-29T07:10:43.692Z,0.77
2022-12-29T07:15:46.654Z,0.70
2022-12-29T07:20:50.621Z,0.85
2022-12-29T07:26:00.416Z,0.28
2022-12-29T07:31:03.252Z,0.43
2022-12-29T07:36:08.809Z,0.80
2022-12-29T07:41:11.425Z,0.40
2022-12-29T07:46:56.704Z,0.80
2022-12-29T07:51:38.012Z,0.73
2022-12-29T07:56:40.532Z,0.40
2022-12-29T08:01:43.186Z,0.90
2022-12-29T08:06:47.414Z,1.10
2022-12-29T08:11:50.346Z,0.90
2022-12-29T08:16:53.237Z,0.90
2022-12-29T08:21:57.122Z,1.20
2022-12-29T08:27:04.557Z,0.88
2022-12-29T08:32:11.811Z,1.30
2022-12-29T08:37:15.717Z,0.88
2022-12-29T08:42:18.303Z,1.13
2022-12-29T08:47:20.861Z,0.80
2022-12-29T08:52:24.906Z,1.13
2022-12-29T08:57:27.350Z,1.15
2022-12-29T09:02:29.964Z,0.50
2022-12-29T09:07:34.109Z,1.35
2022-12-29T09:17:46.160Z,0.90
2022-12-29T09:22:50.766Z,1.05
2022-12-29T09:27:54.089Z,0.70
2022-12-29T09:32:56.712Z,0.80
2022-12-29T09:38:00.565Z,1.30
2022-12-29T09:48:09.778Z,1.15
2022-12-29T09:53:17.084Z,0.90
2022-12-29T09:58:23.171Z,1.00
2022-12-29T10:03:28.936Z,0.40
2022-12-29T10:08:39.957Z,0.90
2022-12-29T10:13:49.982Z,0.88
2022-12-29T10:18:57.629Z,1.02
2022-12-29T10:24:04.613Z,0.73
2022-12-29T10:29:08.212Z,0.63
2022-12-29T10:34:19.740Z,1.00
2022-12-29T10:39:25.738Z,0.93
2022-12-29T10:44:32.084Z,0.95
2022-12-29T10:49:39.199Z,1.05
2022-12-29T10:54:46.338Z,1.13
2022-12-29T10:59:48.900Z,1.20
2022-12-29T11:04:55.452Z,1.27
2022-12-29T11:10:17.540Z,1.02
2022-12-29T11:15:26.299Z,1.27
2022-12-29T11:20:31.161Z,1.43
2022-12-29T11:25:35.057Z,1.70
2022-12-29T11:30:37.700Z,1.83
2022-12-29T11:35:42.524Z,1.10
2022-12-29T11:40:46.648Z,1.33
2022-12-29T11:45:49.487Z,1.38
2022-12-29T11:50:53.961Z,0.85
2022-12-29T11:55:59.319Z,1.30
2022-12-29T12:01:03.949Z,1.30
2022-12-29T12:06:08.342Z,1.45
2022-12-29T12:11:13.541Z,1.50
2022-12-29T12:16:17.410Z,1.60
2022-12-29T12:21:25.913Z,0.80
2022-12-29T12:26:34.332Z,0.70
2022-12-29T12:31:43.414Z,1.67
2022-12-29T12:36:52.969Z,1.50
2022-12-29T12:42:06.571Z,2.33
2022-12-29T12:47:25.239Z,1.25
2022-12-29T12:52:32.111Z,1.23
2022-12-29T12:57:42.492Z,0.50
2022-12-29T13:02:55.850Z,0.65
2022-12-29T13:08:24.709Z,0.43
2022-12-29T13:13:38.513Z,0.70
2022-12-29T13:23:48.945Z,0.60
2022-12-29T13:28:55.353Z,0.85
2022-12-29T13:34:01.492Z,0.50
2022-12-29T13:39:07.011Z,0.95
2022-12-29T13:44:13.422Z,0.50
2022-12-29T13:49:17.545Z,0.60
2022-12-29T13:54:26.601Z,0.73
2022-12-29T13:59:41.288Z,0.80
2022-12-29T14:04:57.399Z,0.85
2022-12-29T14:09:59.922Z,0.43
2022-12-29T14:15:08.890Z,1.10
2022-12-29T14:20:20.110Z,0.93
2022-12-29T14:25:37.518Z,0.70
2022-12-29T14:30:49.976Z,1.05
2022-12-29T14:35:53.330Z,0.85
2022-12-29T14:41:21.338Z,0.90
2022-12-29T14:46:25.419Z,0.80
2022-12-29T14:56:32.671Z,0.80
2022-12-29T15:01:40.485Z,1.17
2022-12-29T15:06:45.965Z,1.25
2022-12-29T15:11:50.620Z,1.80
2022-12-29T15:16:54.484Z,0.90
2022-12-29T15:21:57.597Z,1.85
2022-12-29T15:27:05.086Z,1.20
2022-12-29T15:32:22.854Z,1.05
2022-12-29T15:37:26.429Z,2.13
2022-12-29T15:42:52.052Z,1.92
2022-12-29T15:47:56.957Z,1.58
2022-12-29T15:52:59.932Z,1.65
2022-12-29T15:58:03.999Z,1.80
2022-12-29T16:03:08.557Z,1.23
2022-12-29T16:08:23.386Z,2.17
2022-12-29T16:13:27.612Z,2.45
2022-12-29T16:23:34.533Z,1.80
2022-12-29T16:28:42.876Z,1.40
2022-12-29T16:33:47.668Z,2.08
2022-12-29T16:38:53.120Z,1.80
2022-12-29T16:44:10.455Z,1.65
2022-12-29T16:49:23.127Z,0.90
2022-12-29T16:54:32.580Z,1.67
2022-12-29T16:59:36.299Z,1.67
2022-12-29T17:04:38.791Z,1.25
2022-12-29T17:09:42.891Z,1.77
2022-12-29T17:14:46.683Z,1.40
2022-12-29T17:19:50.775Z,1.65
2022-12-29T17:29:59.616Z,1.50
2022-12-29T17:35:02.305Z,1.75
2022-12-29T17:40:07.518Z,1.35
2022-12-29T17:45:13.878Z,1.70
2022-12-29T17:50:17.546Z,1.35
2022-12-29T17:55:21.385Z,1.77
2022-12-29T18:00:27.683Z,2.35
2022-12-29T18:05:32.736Z,1.48
2022-12-29T18:10:36.275Z,1.65
2022-12-29T18:15:40.317Z,1.55
2022-12-29T18:25:49.294Z,1.08
2022-12-29T18:30:53.798Z,2.75
2022-12-29T18:35:57.616Z,1.98
2022-12-29T18:41:00.634Z,2.00
2022-12-29T18:46:04.728Z,1.98
2022-12-29T18:56:13.444Z,1.83
2022-12-29T19:01:21.060Z,2.22
2022-12-29T19:06:24.158Z,1.50
2022-12-29T19:11:26.774Z,1.95
2022-12-29T19:16:30.882Z,1.58
2022-12-29T19:26:37.111Z,1.40
2022-12-29T19:31:41.356Z,1.33
2022-12-29T19:41:46.692Z,0.82
2022-12-29T19:46:50.623Z,1.95
2022-12-29T19:51:53.292Z,2.13
2022-12-29T19:56:56.015Z,2.30
2022-12-29T20:02:00.112Z,1.42
2022-12-29T20:07:03.078Z,1.77
2022-12-29T20:12:05.857Z,2.30
2022-12-29T20:17:12.004Z,1.20
2022-12-29T20:22:14.886Z,0.70
2022-12-29T20:27:17.354Z,1.60
2022-12-29T20:32:22.587Z,1.70
2022-12-29T20:37:25.198Z,1.00
2022-12-29T20:42:27.790Z,1.40
2022-12-29T20:47:31.757Z,1.67
2022-12-29T20:52:34.491Z,1.35
2022-12-29T20:57:57.509Z,1.10
2022-12-29T21:03:01.402Z,1.13
2022-12-29T21:08:04.867Z,1.15
2022-12-29T21:13:07.603Z,2.13
2022-12-29T21:18:13.697Z,1.55
2022-12-29T21:23:18.549Z,1.23
2022-12-29T21:28:25.044Z,1.50
2022-12-29T21:33:29.218Z,1.50
2022-12-29T21:43:35.406Z,0.80
2022-12-29T21:48:39.375Z,1.88
2022-12-29T21:53:43.144Z,1.98
2022-12-29T21:59:04.746Z,1.20
2022-12-29T22:04:26.479Z,1.65
2022-12-29T22:09:46.905Z,1.90
2022-12-29T22:14:49.709Z,1.80
2022-12-29T22:19:53.767Z,2.58
2022-12-29T22:24:56.773Z,1.83
2022-12-29T22:29:59.710Z,2.22
2022-12-29T22:35:07.776Z,1.90
2022-12-29T22:40:12.167Z,2.10
2022-12-29T22:45:15.030Z,2.30
2022-12-29T22:50:19.461Z,1.90
2022-12-29T22:55:22.066Z,1.67
2022-12-29T23:00:24.631Z,2.08
2022-12-29T23:05:28.686Z,1.80
2022-12-29T23:10:32.097Z,2.17
2022-12-29T23:15:35.806Z,1.90
2022-12-29T23:20:41.471Z,1.40
2022-12-29T23:25:44.351Z,1.35
2022-12-29T23:30:55.336Z,1.50
2022-12-29T23:35:59.510Z,1.13
2022-12-29T23:46:08.683Z,0.80
2022-12-29T23:51:12.674Z,1.30
2022-12-29T23:56:17.194Z,1.17
